.
WxDataArchive / Data Records for 2012-09-11
2012-09-10 September 2012 2012-09-12

Data Records for Tuesday, 11 September 2012

Time	Temp	Chill	HIndex	Humid	Dewpt	 Wind 	HiWind	WindDir	Rain 	Barom 
-----	----	-----	------	-----	-----	------	------	-------	-----	----- 
00:00	53.9	53.9	53.9	79	47.5	0	0	---	0.00	30.159 
00:05	53.8	53.8	53.8	79	47.4	0	0	---	0.00	30.159 
00:10	53.6	53.6	53.6	79	47.2	0	0	---	0.00	30.159 
00:15	53.6	53.6	53.6	79	47.2	0	0	---	0.00	30.158 
00:20	53.5	53.5	53.5	80	47.5	0	0	---	0.00	30.158 
00:25	53.5	53.5	53.5	80	47.5	0	0	---	0.00	30.158 
00:30	53.3	53.3	53.3	80	47.3	0	0	---	0.00	30.157 
00:35	53.3	53.3	53.3	81	47.6	0	0	---	0.00	30.157 
00:40	53.2	53.2	53.2	81	47.5	0	0	---	0.00	30.157 
00:45	53.2	53.2	53.2	81	47.5	0	0	---	0.00	30.160 
00:50	53.1	53.1	53.1	81	47.4	0	0	---	0.00	30.160 
00:55	52.9	52.9	52.9	82	47.6	0	0	---	0.00	30.160 
01:00	52.8	52.8	52.8	82	47.5	0	0	---	0.00	30.159 
01:05	52.8	52.8	52.8	82	47.5	0	0	---	0.00	30.159 
01:10	52.6	52.6	52.6	82	47.3	0	0	---	0.00	30.159 
01:15	52.5	52.5	52.5	83	47.5	0	0	---	0.00	30.158 
01:20	52.5	52.5	52.5	83	47.5	0	0	---	0.00	30.158 
01:25	52.3	52.3	52.3	83	47.3	0	0	---	0.00	30.158 
01:30	52.3	52.3	52.3	84	47.6	0	0	---	0.00	30.165 
01:35	52.2	52.2	52.2	84	47.5	0	0	---	0.00	30.165 
01:40	52.2	52.2	52.2	84	47.5	0	0	---	0.00	30.165 
01:45	52.0	52.0	52.0	84	47.3	0	0	---	0.00	30.168 
01:50	52.0	52.0	52.0	84	47.3	0	0	---	0.00	30.168 
01:55	51.9	51.9	51.9	84	47.2	0	0	---	0.00	30.168 
02:00	51.7	51.7	51.7	84	47.0	0	0	---	0.00	30.166 
02:05	51.6	51.6	51.6	84	46.9	0	0	---	0.00	30.166 
02:10	51.6	51.6	51.6	84	46.9	0	0	---	0.00	30.166 
02:15	51.4	51.4	51.4	85	47.0	0	0	---	0.00	30.166 
02:20	51.3	51.3	51.3	85	46.9	0	0	---	0.00	30.166 
02:25	51.3	51.3	51.3	85	46.9	0	0	---	0.00	30.166 
02:30	51.1	51.1	51.1	85	46.7	0	0	---	0.00	30.165 
02:35	51.1	51.1	51.1	85	46.7	0	0	---	0.00	30.165 
02:40	51.1	51.1	51.1	85	46.7	0	0	---	0.00	30.165 
02:45	51.1	51.1	51.1	86	47.1	0	0	---	0.00	30.168 
02:50	51.1	51.1	51.1	86	47.1	0	0	---	0.00	30.168 
02:55	51.1	51.1	51.1	86	47.1	0	0	---	0.00	30.168 
03:00	51.0	51.0	51.0	86	47.0	0	0	---	0.00	30.175 
03:05	51.0	51.0	51.0	86	47.0	0	0	---	0.00	30.175 
03:10	50.8	50.8	50.8	86	46.8	0	0	---	0.00	30.175 
03:15	50.8	50.8	50.8	86	46.8	0	0	---	0.00	30.168 
03:20	50.8	50.8	50.8	87	47.1	0	0	---	0.00	30.168 
03:25	50.7	50.7	50.7	87	47.0	0	0	---	0.00	30.168 
03:30	50.7	50.7	50.7	87	47.0	0	0	---	0.00	30.170 
03:35	50.5	50.5	50.5	87	46.8	0	0	---	0.00	30.170 
03:40	50.5	50.5	50.5	87	46.8	0	0	---	0.00	30.170 
03:45	50.5	50.5	50.5	87	46.8	0	0	---	0.00	30.171 
03:50	50.5	50.5	50.5	88	47.1	0	0	---	0.00	30.171 
03:55	50.4	50.4	50.4	88	47.0	0	0	---	0.00	30.171 
04:00	50.4	50.4	50.4	88	47.0	0	0	---	0.00	30.172 
04:05	50.4	50.4	50.4	88	47.0	0	0	---	0.00	30.172 
04:10	50.2	50.2	50.2	88	46.8	0	0	---	0.00	30.172 
04:15	50.2	50.2	50.2	88	46.8	0	0	---	0.00	30.176 
04:20	50.2	50.2	50.2	88	46.8	0	0	---	0.00	30.176 
04:25	50.2	50.2	50.2	88	46.8	0	0	---	0.00	30.176 
04:30	50.1	50.1	50.1	88	46.7	0	0	---	0.00	30.175 
04:35	50.1	50.1	50.1	88	46.7	0	0	---	0.00	30.175 
04:40	50.1	50.1	50.1	89	47.0	0	0	---	0.00	30.175 
04:45	49.9	49.9	49.9	89	46.8	0	0	---	0.00	30.176 
04:50	49.9	49.9	49.9	89	46.8	0	0	---	0.00	30.176 
04:55	49.8	49.8	49.8	89	46.7	0	0	---	0.00	30.176 
05:00	49.8	49.8	49.8	89	46.7	0	0	---	0.00	30.177 
05:05	49.9	49.9	49.9	90	47.1	0	0	---	0.00	30.177 
05:10	49.8	49.8	49.8	90	47.0	0	0	---	0.00	30.177 
05:15	49.8	49.8	49.8	90	47.0	0	0	---	0.00	30.179 
05:20	49.8	49.8	49.8	90	47.0	0	0	---	0.00	30.179 
05:25	49.8	49.8	49.8	90	47.0	0	0	---	0.00	30.179 
05:30	49.6	49.6	49.6	90	46.8	0	0	---	0.00	30.183 
05:35	49.6	49.6	49.6	90	46.8	0	0	---	0.00	30.183 
05:40	49.5	49.5	49.5	90	46.7	0	0	---	0.00	30.183 
05:45	49.5	49.5	49.5	90	46.7	0	0	---	0.00	30.185 
05:50	49.5	49.5	49.5	90	46.7	0	0	---	0.00	30.185 
05:55	49.5	49.5	49.5	90	46.7	0	0	---	0.00	30.185 
06:00	49.4	49.4	49.4	90	46.6	0	0	---	0.00	30.191 
06:05	49.4	49.4	49.4	90	46.6	0	0	---	0.00	30.191 
06:10	49.4	49.4	49.4	90	46.6	0	0	---	0.00	30.191 
06:15	49.2	49.2	49.2	90	46.4	0	0	---	0.00	30.194 
06:20	49.2	49.2	49.2	91	46.7	0	0	---	0.00	30.194 
06:25	49.2	49.2	49.2	91	46.7	0	0	---	0.00	30.194 
06:30	49.2	49.2	49.2	91	46.7	0	0	---	0.00	30.195 
06:35	49.2	49.2	49.2	91	46.7	0	0	---	0.00	30.195 
06:40	49.2	49.2	49.2	91	46.7	0	0	---	0.00	30.195 
06:45	49.2	49.2	49.2	91	46.7	0	0	---	0.00	30.197 
06:50	49.2	49.2	49.2	91	46.7	0	0	---	0.00	30.197 
06:55	49.2	49.2	49.2	91	46.7	0	0	---	0.00	30.197 
07:00	49.2	49.2	49.2	91	46.7	0	0	---	0.00	30.207 
07:05	49.1	49.1	49.1	91	46.6	0	0	---	0.00	30.207 
07:10	49.1	49.1	49.1	91	46.6	0	0	---	0.00	30.207 
07:15	48.9	48.9	48.9	91	46.4	0	0	---	0.00	30.212 
07:20	48.9	48.9	48.9	92	46.7	0	0	---	0.00	30.212 
07:25	49.1	49.1	49.1	92	46.9	0	0	---	0.00	30.212 
07:30	49.1	49.1	49.1	92	46.9	0	0	---	0.00	30.212 
07:35	49.4	49.4	49.4	92	47.2	0	0	---	0.00	30.212 
07:40	49.5	49.5	49.5	92	47.3	0	0	---	0.00	30.212 
07:45	49.5	49.5	49.5	92	47.3	0	0	---	0.00	30.214 
07:50	49.8	49.8	49.8	92	47.6	0	0	---	0.00	30.214 
07:55	50.1	50.1	50.1	93	48.2	0	0	---	0.00	30.214 
08:00	50.5	50.5	50.5	92	48.3	0	0	---	0.00	30.219 
08:05	51.0	51.0	51.0	92	48.8	0	0	---	0.00	30.219 
08:10	51.6	51.6	51.6	92	49.4	0	0	---	0.00	30.219 
08:15	52.0	52.0	52.0	92	49.7	0	0	---	0.00	30.229 
08:20	52.6	52.6	52.6	92	50.3	0	0	---	0.00	30.229 
08:25	53.1	53.1	53.1	91	50.5	0	0	---	0.00	30.229 
08:30	53.6	53.6	53.6	91	51.0	0	1	90	0.00	30.224 
08:35	54.4	54.4	54.4	89	51.2	0	1	90	0.00	30.224 
08:40	55.1	55.1	55.1	88	51.6	0	1	90	0.00	30.224 
08:45	56.0	56.0	56.0	86	51.9	0	0	---	0.00	30.227 
08:50	56.7	56.7	56.7	84	51.9	0	0	---	0.00	30.227 
08:55	57.2	57.2	57.2	82	51.8	0	1	90	0.00	30.227 
09:00	58.0	58.0	58.0	81	52.2	0	0	---	0.00	30.226 
09:05	58.6	58.6	58.6	78	51.8	0	1	90	0.00	30.226 
09:10	59.2	59.2	59.2	77	52.0	0	1	90	0.00	30.226 
09:15	59.8	59.8	59.8	75	51.9	0	1	90	0.00	30.223 
09:20	60.2	60.2	60.2	74	51.9	0	0	---	0.00	30.223 
09:25	60.7	60.7	60.7	74	52.4	0	0	---	0.00	30.223 
09:30	61.3	61.3	61.3	72	52.2	0	1	90	0.00	30.224 
09:35	62.0	62.0	62.0	71	52.5	0	1	90	0.00	30.224 
09:40	62.4	62.4	62.4	70	52.5	0	2	90	0.00	30.224 
09:45	63.1	63.1	63.1	69	52.8	0	2	90	0.00	30.224 
09:50	63.5	63.5	63.5	67	52.3	0	3	90	0.00	30.224 
09:55	64.0	64.0	64.0	66	52.4	0	1	90	0.00	30.224 
10:00	64.5	64.5	64.5	63	51.6	1	3	248	0.00	30.222 
10:05	65.2	65.2	65.2	63	52.3	0	3	292	0.00	30.222 
10:10	65.8	65.8	65.8	63	52.8	0	2	292	0.00	30.222 
10:15	66.3	66.3	66.3	60	52.0	1	3	270	0.00	30.227 
10:20	67.1	67.1	67.1	61	53.2	0	3	270	0.00	30.227 
10:25	67.8	67.8	67.8	61	53.9	0	2	270	0.00	30.227 
10:30	68.8	68.8	68.8	61	54.8	0	2	270	0.00	30.228 
10:35	69.4	69.4	69.4	56	53.0	1	4	270	0.00	30.228 
10:40	69.9	69.9	69.9	58	54.4	0	2	270	0.00	30.228 
10:45	70.4	70.4	70.4	57	54.4	0	3	225	0.00	30.224 
10:50	70.9	70.9	70.9	54	53.4	0	2	225	0.00	30.224 
10:55	71.6	71.6	71.6	55	54.6	0	1	225	0.00	30.224 
11:00	72.5	72.5	72.5	52	53.9	0	3	225	0.00	30.222 
11:05	73.0	73.0	73.0	51	53.8	1	4	112	0.00	30.222 
11:10	72.8	72.8	72.8	48	52.0	1	3	270	0.00	30.222 
11:15	72.7	72.7	72.7	50	53.0	1	2	292	0.00	30.222 
11:20	72.3	72.3	72.3	49	52.1	2	4	270	0.00	30.222 
11:25	72.5	72.5	72.5	50	52.8	1	2	270	0.00	30.222 
11:30	72.8	72.8	72.8	49	52.5	1	3	248	0.00	30.227 
11:35	73.2	73.2	73.2	50	53.4	0	3	248	0.00	30.227 
11:40	73.7	73.7	73.7	48	52.8	1	2	248	0.00	30.227 
11:45	74.0	74.0	74.0	50	54.2	1	2	45	0.00	30.223 
11:50	74.4	74.4	74.4	46	52.3	1	3	248	0.00	30.223 
11:55	74.9	74.9	74.9	48	53.9	1	3	248	0.00	30.223 
12:00	74.9	74.9	74.9	47	53.3	1	7	292	0.00	30.218 
12:05	75.1	75.1	77.7	46	52.9	1	4	248	0.00	30.218 
12:10	75.3	75.3	77.7	46	53.1	1	4	270	0.00	30.218 
12:15	75.3	75.3	77.7	46	53.1	1	4	248	0.00	30.217 
12:20	75.6	75.6	77.8	46	53.3	1	4	248	0.00	30.217 
12:25	76.0	76.0	78.0	47	54.3	1	3	248	0.00	30.217 
12:30	76.3	76.3	78.1	46	54.0	1	3	292	0.00	30.212 
12:35	76.8	76.8	78.4	47	55.0	1	2	202	0.00	30.212 
12:40	77.0	77.0	78.5	46	54.6	1	3	248	0.00	30.212 
12:45	77.4	77.4	78.6	45	54.4	1	3	248	0.00	30.213 
12:50	77.6	77.6	78.8	45	54.6	1	3	68	0.00	30.213 
12:55	77.2	77.2	78.5	45	54.2	1	5	248	0.00	30.213 
13:00	77.2	77.2	78.5	43	52.9	1	4	292	0.00	30.209 
13:05	76.8	76.8	78.3	44	53.2	1	3	292	0.00	30.209 
13:10	77.2	77.2	78.5	44	53.6	0	3	292	0.00	30.209 
13:15	77.4	77.4	78.6	43	53.1	1	3	292	0.00	30.204 
13:20	77.6	77.6	78.8	45	54.6	1	3	292	0.00	30.204 
13:25	77.9	77.9	78.9	44	54.2	1	3	292	0.00	30.204 
13:30	78.1	78.1	79.0	44	54.4	1	4	90	0.00	30.199 
13:35	78.5	78.5	79.1	42	53.5	1	4	202	0.00	30.199 
13:40	78.3	78.3	78.9	41	52.6	2	7	270	0.00	30.199 
13:45	78.1	78.1	78.8	40	51.8	1	7	112	0.00	30.198 
13:50	77.9	77.9	78.8	43	53.6	1	3	248	0.00	30.198 
13:55	78.5	78.5	79.1	42	53.5	1	3	270	0.00	30.198 
14:00	78.5	78.5	79.1	41	52.8	1	4	248	0.00	30.192 
14:05	78.5	78.5	79.1	42	53.5	1	3	270	0.00	30.192 
14:10	78.6	78.6	79.1	41	52.9	1	2	338	0.00	30.192 
14:15	79.0	79.0	79.3	40	52.6	1	3	315	0.00	30.188 
14:20	79.4	79.4	79.6	41	53.6	1	4	90	0.00	30.188 
14:25	79.2	79.2	79.3	38	51.4	1	4	90	0.00	30.188 
14:30	79.0	79.0	79.3	40	52.6	1	3	270	0.00	30.183 
14:35	79.2	79.2	79.4	40	52.8	1	4	292	0.00	30.183 
14:40	79.6	79.6	79.7	41	53.8	0	3	90	0.00	30.183 
14:45	79.6	79.6	79.5	38	51.7	2	6	90	0.00	30.174 
14:50	79.2	79.2	79.3	39	52.1	2	4	68	0.00	30.174 
14:55	79.2	79.2	79.3	39	52.1	1	4	22	0.00	30.174 
15:00	79.4	79.4	79.7	42	54.3	1	4	225	0.00	30.170 
15:05	79.4	79.4	79.5	40	52.9	1	2	315	0.00	30.170 
15:10	79.4	79.4	79.6	41	53.6	1	4	315	0.00	30.170 
15:15	79.6	79.6	79.6	39	52.4	1	5	112	0.00	30.168 
15:20	79.8	79.8	79.8	40	53.3	0	3	292	0.00	30.168 
15:25	79.8	79.8	79.6	37	51.2	1	5	90	0.00	30.168 
15:30	79.6	79.6	79.7	40	53.1	1	4	270	0.00	30.164 
15:35	79.2	79.2	79.3	39	52.1	2	6	90	0.00	30.164 
15:40	78.8	78.8	79.2	40	52.4	1	5	292	0.00	30.164 
15:45	79.0	79.0	79.2	38	51.2	1	5	45	0.00	30.155 
15:50	79.2	79.2	79.2	37	50.7	1	2	248	0.00	30.155 
15:55	79.4	79.4	79.6	41	53.6	1	3	112	0.00	30.155 
16:00	79.4	79.4	79.5	39	52.3	1	3	0	0.00	30.153 
16:05	79.2	79.2	79.3	39	52.1	2	7	45	0.00	30.153 
16:10	79.0	79.0	79.3	40	52.6	1	3	45	0.00	30.153 
16:15	79.0	79.0	79.2	39	51.9	1	4	338	0.00	30.148 
16:20	79.0	79.0	79.2	38	51.2	1	3	270	0.00	30.148 
16:25	79.0	79.0	79.3	40	52.6	1	3	270	0.00	30.148 
16:30	79.0	79.0	79.4	41	53.3	1	5	292	0.00	30.146 
16:35	79.0	79.0	79.2	39	51.9	1	4	68	0.00	30.146 
16:40	79.2	79.2	79.4	40	52.8	1	3	270	0.00	30.146 
16:45	79.0	79.0	79.2	38	51.2	1	5	90	0.00	30.148 
16:50	78.8	78.8	79.1	39	51.7	1	4	248	0.00	30.148 
16:55	78.6	78.6	79.0	40	52.2	1	3	270	0.00	30.148 
17:00	78.6	78.6	78.9	38	50.8	1	3	292	0.00	30.148 
17:05	78.6	78.6	78.9	38	50.8	1	3	315	0.00	30.148 
17:10	78.6	78.6	79.0	40	52.2	1	3	68	0.00	30.148 
17:15	78.5	78.5	78.9	39	51.5	1	5	270	0.00	30.148 
17:20	78.3	78.3	78.8	39	51.3	1	7	270	0.00	30.148 
17:25	78.3	78.3	78.8	38	50.6	1	4	338	0.00	30.148 
17:30	78.3	78.3	78.8	39	51.3	1	4	292	0.00	30.141 
17:35	78.3	78.3	78.9	40	52.0	0	2	68	0.00	30.141 
17:40	78.1	78.1	78.7	39	51.1	0	3	68	0.00	30.141 
17:45	78.1	78.1	78.8	41	52.5	0	3	292	0.00	30.141 
17:50	78.3	78.3	78.7	37	49.9	1	3	292	0.00	30.141 
17:55	78.3	78.3	78.7	37	49.9	0	2	292	0.00	30.141 
18:00	78.1	78.1	78.7	38	50.4	1	3	292	0.00	30.141 
18:05	78.1	78.1	78.8	40	51.8	0	2	292	0.00	30.141 
18:10	77.9	77.9	78.5	37	49.5	1	3	45	0.00	30.141 
18:15	77.6	77.6	78.4	38	50.0	1	4	45	0.00	30.141 
18:20	77.4	77.4	78.3	38	49.8	1	5	292	0.00	30.141 
18:25	77.4	77.4	78.3	38	49.8	0	2	270	0.00	30.141 
18:30	77.4	77.4	78.4	39	50.5	0	3	292	0.00	30.139 
18:35	77.2	77.2	78.3	39	50.3	0	3	292	0.00	30.139 
18:40	77.0	77.0	78.2	39	50.1	0	2	292	0.00	30.139 
18:45	76.8	76.8	78.0	38	49.2	0	3	45	0.00	30.137 
18:50	76.7	76.7	78.1	39	49.9	0	2	45	0.00	30.137 
18:55	76.5	76.5	78.0	39	49.7	0	2	45	0.00	30.137 
19:00	76.3	76.3	77.9	39	49.5	0	1	45	0.00	30.138 
19:05	76.1	76.1	77.8	39	49.3	0	2	248	0.00	30.138 
19:10	76.0	76.0	77.8	40	49.9	0	1	248	0.00	30.138 
19:15	75.6	75.6	77.7	40	49.6	0	1	248	0.00	30.138 
19:20	75.3	75.3	77.6	41	50.0	0	1	248	0.00	30.138 
19:25	74.9	74.9	74.9	42	50.2	0	1	248	0.00	30.138 
19:30	74.6	74.6	74.6	43	50.6	0	1	248	0.00	30.134 
19:35	74.2	74.2	74.2	43	50.2	0	0	---	0.00	30.134 
19:40	73.9	73.9	73.9	43	50.0	0	0	---	0.00	30.134 
19:45	73.7	73.7	73.7	44	50.4	0	0	---	0.00	30.134 
19:50	73.3	73.3	73.3	45	50.7	0	0	---	0.00	30.134 
19:55	73.0	73.0	73.0	46	51.0	0	0	---	0.00	30.134 
20:00	72.7	72.7	72.7	46	50.7	0	0	---	0.00	30.136 
20:05	72.3	72.3	72.3	47	50.9	0	0	---	0.00	30.136 
20:10	71.8	71.8	71.8	48	51.0	0	0	---	0.00	30.136 
20:15	71.3	71.3	71.3	49	51.1	0	0	---	0.00	30.138 
20:20	70.8	70.8	70.8	51	51.8	0	0	---	0.00	30.138 
20:25	70.3	70.3	70.3	52	51.8	0	0	---	0.00	30.138 
20:30	69.6	69.6	69.6	53	51.7	0	0	---	0.00	30.142 
20:35	68.9	68.9	68.9	56	52.5	0	0	---	0.00	30.142 
20:40	68.4	68.4	68.4	56	52.1	0	0	---	0.00	30.142 
20:45	67.9	67.9	67.9	58	52.6	0	0	---	0.00	30.148 
20:50	67.3	67.3	67.3	59	52.5	0	0	---	0.00	30.148 
20:55	66.8	66.8	66.8	60	52.5	0	0	---	0.00	30.148 
21:00	66.3	66.3	66.3	62	52.9	0	0	---	0.00	30.154 
21:05	65.8	65.8	65.8	63	52.8	0	0	---	0.00	30.154 
21:10	65.5	65.5	65.5	64	53.0	0	0	---	0.00	30.154 
21:15	65.0	65.0	65.0	64	52.5	0	0	---	0.00	30.153 
21:20	64.7	64.7	64.7	65	52.7	0	0	---	0.00	30.153 
21:25	64.5	64.5	64.5	65	52.5	0	0	---	0.00	30.153 
21:30	64.2	64.2	64.2	66	52.6	0	0	---	0.00	30.155 
21:35	63.9	63.9	63.9	67	52.7	0	0	---	0.00	30.155 
21:40	63.7	63.7	63.7	67	52.5	0	0	---	0.00	30.155 
21:45	63.5	63.5	63.5	68	52.7	0	0	---	0.00	30.156 
21:50	63.4	63.4	63.4	69	53.0	0	0	---	0.00	30.156 
21:55	63.2	63.2	63.2	69	52.9	0	0	---	0.00	30.156 
22:00	63.1	63.1	63.1	69	52.8	0	0	---	0.00	30.155 
22:05	62.9	62.9	62.9	70	53.0	0	0	---	0.00	30.155 
22:10	62.7	62.7	62.7	70	52.8	0	0	---	0.00	30.155 
22:15	62.4	62.4	62.4	70	52.5	0	0	---	0.00	30.152 
22:20	62.3	62.3	62.3	71	52.8	0	0	---	0.00	30.152 
22:25	62.1	62.1	62.1	72	53.0	0	0	---	0.00	30.152 
22:30	62.0	62.0	62.0	72	52.9	0	0	---	0.00	30.156 
22:35	61.8	61.8	61.8	72	52.7	0	0	---	0.00	30.156 
22:40	61.6	61.6	61.6	72	52.5	0	0	---	0.00	30.156 
22:45	61.6	61.6	61.6	72	52.5	0	0	---	0.00	30.157 
22:50	61.6	61.6	61.6	72	52.5	0	0	---	0.00	30.157 
22:55	61.8	61.8	61.8	71	52.3	0	0	---	0.00	30.157 
23:00	62.1	62.1	62.1	70	52.2	0	0	---	0.00	30.159 
23:05	62.3	62.3	62.3	69	52.0	0	0	---	0.00	30.159 
23:10	62.4	62.4	62.4	68	51.7	0	0	---	0.00	30.159 
23:15	62.6	62.6	62.6	68	51.9	0	0	---	0.00	30.160 
23:20	62.6	62.6	62.6	67	51.5	0	0	---	0.00	30.160 
23:25	62.4	62.4	62.4	67	51.3	0	0	---	0.00	30.160 
23:30	62.4	62.4	62.4	67	51.3	0	0	---	0.00	30.165 
23:35	62.4	62.4	62.4	67	51.3	0	0	---	0.00	30.165 
23:40	62.4	62.4	62.4	66	50.9	0	0	---	0.00	30.165 
23:45	62.4	62.4	62.4	66	50.9	0	0	---	0.00	30.165 
23:50	62.4	62.4	62.4	66	50.9	0	0	---	0.00	30.165 
23:55	62.4	62.4	62.4	66	50.9	0	0	---	0.00	30.165 

CoCoRaHS
IN-AL-39
A2 Web Hosting
Creative Commons License
GoDaddy
search engine by freefind advanced

loaded 2018-11-15 03:51:11 • last modified 2010-11-18 10:43:29
Privacy PolicyDisclaimer
• wx.awcolley.com is powered by PmWiki v.2002016 •
• all content (unless otherwise noted) © 2018 A W Colley